createdAt,value
2018-07-25T00:00:31.848Z,20.80
2018-07-25T00:03:36.065Z,20.80
2018-07-25T00:06:40.265Z,20.70
2018-07-25T00:09:44.497Z,20.70
2018-07-25T00:12:48.708Z,20.60
2018-07-25T00:15:52.920Z,20.60
2018-07-25T00:18:57.104Z,20.50
2018-07-25T00:22:01.330Z,20.50
2018-07-25T00:25:05.585Z,20.50
2018-07-25T00:28:09.822Z,20.50
2018-07-25T00:31:14.012Z,20.50
2018-07-25T00:34:18.244Z,20.50
2018-07-25T00:37:22.449Z,20.50
2018-07-25T00:40:26.687Z,20.50
2018-07-25T00:43:30.914Z,20.40
2018-07-25T00:46:35.193Z,20.40
2018-07-25T00:49:39.394Z,20.30
2018-07-25T00:52:43.609Z,20.30
2018-07-25T00:55:47.821Z,20.30
2018-07-25T00:58:52.050Z,20.30
2018-07-25T01:01:56.280Z,20.20
2018-07-25T01:05:00.514Z,20.20
2018-07-25T01:08:04.720Z,20.20
2018-07-25T01:11:09.002Z,20.10
2018-07-25T01:14:13.212Z,20.10
2018-07-25T01:17:17.485Z,20.10
2018-07-25T01:20:21.681Z,20.10
2018-07-25T01:23:25.919Z,20.00
2018-07-25T01:26:30.118Z,20.00
2018-07-25T01:32:38.356Z,19.90
2018-07-25T01:35:42.629Z,19.90
2018-07-25T01:38:46.824Z,19.80
2018-07-25T01:41:51.060Z,19.80
2018-07-25T01:44:55.260Z,19.70
2018-07-25T01:47:59.497Z,19.70
2018-07-25T01:51:03.740Z,19.70
2018-07-25T01:54:07.963Z,19.60
2018-07-25T01:57:12.219Z,19.60
2018-07-25T02:00:16.473Z,19.60
2018-07-25T02:03:20.705Z,19.60
2018-07-25T02:06:25.717Z,19.50
2018-07-25T02:09:29.940Z,19.50
2018-07-25T02:12:34.264Z,19.50
2018-07-25T02:15:38.452Z,19.50
2018-07-25T02:18:42.689Z,19.50
2018-07-25T02:21:46.892Z,19.50
2018-07-25T02:24:51.145Z,19.40
2018-07-25T02:27:55.397Z,19.40
2018-07-25T02:31:00.047Z,19.30
2018-07-25T02:34:09.637Z,19.30
2018-07-25T02:37:13.865Z,19.30
2018-07-25T02:40:18.220Z,19.30
2018-07-25T02:43:22.443Z,19.20
2018-07-25T02:46:26.678Z,19.20
2018-07-25T02:49:30.936Z,19.30
2018-07-25T02:52:35.165Z,19.20
2018-07-25T02:55:39.394Z,19.20
2018-07-25T02:58:43.618Z,19.20
2018-07-25T03:01:47.853Z,19.10
2018-07-25T03:04:52.077Z,19.10
2018-07-25T03:07:56.278Z,19.00
2018-07-25T03:11:00.510Z,19.00
2018-07-25T03:14:04.742Z,19.00
2018-07-25T03:17:09.139Z,18.90
2018-07-25T03:20:13.425Z,18.90
2018-07-25T03:23:17.614Z,18.90
2018-07-25T03:26:21.843Z,18.80
2018-07-25T03:29:26.049Z,18.80
2018-07-25T03:32:30.245Z,18.80
2018-07-25T03:35:34.445Z,18.80
2018-07-25T03:38:38.668Z,18.80
2018-07-25T03:41:42.888Z,18.70
2018-07-25T03:44:47.128Z,18.70
2018-07-25T03:47:51.344Z,18.70
2018-07-25T03:50:55.597Z,18.70
2018-07-25T03:53:59.837Z,18.70
2018-07-25T03:57:04.114Z,18.70
2018-07-25T04:00:08.313Z,18.70
2018-07-25T04:03:12.542Z,18.70
2018-07-25T04:06:16.767Z,18.70
2018-07-25T04:09:20.977Z,18.70
2018-07-25T04:12:25.356Z,18.70
2018-07-25T04:18:33.549Z,18.80
2018-07-25T04:21:37.746Z,18.80
2018-07-25T04:24:41.986Z,18.90
2018-07-25T04:27:46.978Z,18.90
2018-07-25T04:30:51.216Z,19.00
2018-07-25T04:33:55.427Z,19.10
2018-07-25T04:36:59.634Z,19.10
2018-07-25T04:40:03.873Z,19.20
2018-07-25T04:43:08.096Z,19.30
2018-07-25T04:46:12.368Z,19.30
2018-07-25T04:49:16.553Z,19.40
2018-07-25T04:52:20.772Z,19.40
2018-07-25T04:55:24.993Z,19.50
2018-07-25T04:58:29.881Z,19.60
2018-07-25T05:01:34.121Z,19.60
2018-07-25T05:04:38.329Z,19.70
2018-07-25T05:07:42.557Z,19.80
2018-07-25T05:10:46.785Z,19.90
2018-07-25T05:13:51.004Z,19.90
2018-07-25T05:16:55.232Z,20.20
2018-07-25T05:19:59.457Z,20.30
2018-07-25T05:23:03.666Z,20.40
2018-07-25T05:26:07.842Z,20.40
2018-07-25T05:29:12.070Z,20.60
2018-07-25T05:32:16.281Z,20.70
2018-07-25T05:35:20.488Z,20.80
2018-07-25T05:38:24.715Z,20.90
2018-07-25T05:41:28.961Z,21.10
2018-07-25T05:44:33.196Z,21.20
2018-07-25T05:47:37.448Z,21.30
2018-07-25T05:50:41.717Z,21.40
2018-07-25T05:53:46.086Z,21.60
2018-07-25T05:56:50.322Z,21.70
2018-07-25T05:59:54.504Z,21.90
2018-07-25T06:02:58.721Z,22.00
2018-07-25T06:06:02.985Z,22.20
2018-07-25T06:09:09.427Z,22.40
2018-07-25T06:12:13.642Z,22.60
2018-07-25T06:18:21.828Z,22.90
2018-07-25T06:21:26.029Z,23.10
2018-07-25T06:24:30.220Z,23.20
2018-07-25T06:27:34.538Z,23.30
2018-07-25T06:30:38.753Z,23.40
2018-07-25T06:33:42.959Z,23.60
2018-07-25T06:36:47.150Z,23.70
2018-07-25T06:39:51.385Z,23.90
2018-07-25T06:42:55.656Z,24.00
2018-07-25T06:45:59.852Z,24.10
2018-07-25T06:49:04.312Z,24.10
2018-07-25T06:52:08.531Z,24.30
2018-07-25T06:55:12.760Z,24.40
2018-07-25T06:58:16.949Z,24.50
2018-07-25T07:01:21.140Z,24.50
2018-07-25T07:04:25.369Z,24.50
2018-07-25T07:07:29.568Z,24.60
2018-07-25T07:10:33.819Z,24.70
2018-07-25T07:13:38.035Z,24.80
2018-07-25T07:16:42.256Z,24.90
2018-07-25T07:19:46.468Z,25.00
2018-07-25T07:22:50.697Z,25.10
2018-07-25T07:25:54.978Z,25.30
2018-07-25T07:28:59.129Z,25.40
2018-07-25T07:32:03.340Z,25.60
2018-07-25T07:35:07.544Z,25.70
2018-07-25T07:38:11.764Z,25.80
2018-07-25T07:41:15.965Z,26.00
2018-07-25T07:44:20.176Z,26.10
2018-07-25T07:47:24.388Z,26.20
2018-07-25T07:50:28.580Z,26.30
2018-07-25T07:53:32.792Z,26.50
2018-07-25T07:56:36.987Z,26.60
2018-07-25T07:59:41.181Z,26.70
2018-07-25T08:02:45.384Z,26.80
2018-07-25T08:05:49.609Z,27.00
2018-07-25T08:08:53.809Z,27.10
2018-07-25T08:11:58.053Z,27.20
2018-07-25T08:15:02.253Z,27.20
2018-07-25T08:18:06.459Z,27.30
2018-07-25T08:21:10.769Z,27.40
2018-07-25T08:24:14.952Z,27.50
2018-07-25T08:27:19.210Z,27.60
2018-07-25T08:33:27.421Z,27.90
2018-07-25T08:36:31.632Z,27.90
2018-07-25T08:39:35.915Z,28.00
2018-07-25T08:42:42.258Z,28.20
2018-07-25T08:45:51.458Z,28.40
2018-07-25T08:48:56.127Z,28.50
2018-07-25T08:52:00.925Z,28.60
2018-07-25T08:55:05.427Z,28.80
2018-07-25T08:58:10.934Z,28.90
2018-07-25T09:01:18.555Z,29.10
2018-07-25T09:04:24.518Z,29.20
2018-07-25T09:07:29.005Z,29.40
2018-07-25T09:10:33.212Z,29.50
2018-07-25T09:13:37.449Z,29.60
2018-07-25T09:16:41.719Z,29.80
2018-07-25T09:19:46.089Z,29.80
2018-07-25T09:22:50.309Z,29.90
2018-07-25T09:25:54.551Z,29.90
2018-07-25T09:28:58.754Z,30.10
2018-07-25T09:32:02.992Z,30.20
2018-07-25T09:35:07.236Z,30.20
2018-07-25T09:38:11.490Z,30.30
2018-07-25T09:41:15.722Z,30.30
2018-07-25T09:44:19.940Z,30.40
2018-07-25T09:47:24.199Z,30.60
2018-07-25T09:50:28.391Z,30.50
2018-07-25T09:53:32.647Z,30.40
2018-07-25T09:56:36.869Z,30.50
2018-07-25T10:02:45.129Z,30.60
2018-07-25T10:05:49.305Z,30.60
2018-07-25T10:08:53.537Z,30.60
2018-07-25T10:11:57.764Z,30.70
2018-07-25T10:15:01.999Z,30.70
2018-07-25T10:18:06.384Z,30.70
2018-07-25T10:21:10.597Z,30.80
2018-07-25T10:24:14.846Z,31.10
2018-07-25T10:27:19.112Z,31.10
2018-07-25T10:30:23.469Z,31.20
2018-07-25T10:33:27.741Z,31.10
2018-07-25T10:36:31.960Z,31.20
2018-07-25T10:39:36.196Z,31.40
2018-07-25T10:42:40.457Z,31.50
2018-07-25T10:45:44.624Z,31.50
2018-07-25T10:48:48.873Z,31.50
2018-07-25T10:51:53.074Z,31.50
2018-07-25T10:54:57.296Z,31.70
2018-07-25T10:58:01.542Z,31.70
2018-07-25T11:01:05.832Z,31.50
2018-07-25T11:04:10.049Z,31.50
2018-07-25T11:07:14.277Z,31.40
2018-07-25T11:10:18.499Z,31.40
2018-07-25T11:13:22.697Z,31.30
2018-07-25T11:16:27.002Z,31.20
2018-07-25T11:19:31.196Z,31.30
2018-07-25T11:22:35.449Z,31.30
2018-07-25T11:25:39.665Z,31.40
2018-07-25T11:28:43.917Z,31.40
2018-07-25T11:31:48.153Z,31.30
2018-07-25T11:34:52.373Z,31.50
2018-07-25T11:37:56.625Z,31.60
2018-07-25T11:41:01.236Z,31.60
2018-07-25T11:44:05.448Z,31.70
2018-07-25T11:47:09.662Z,31.80
2018-07-25T11:50:13.957Z,31.90
2018-07-25T11:53:18.162Z,31.90
2018-07-25T11:56:22.401Z,31.80
2018-07-25T11:59:26.632Z,31.70
2018-07-25T12:02:30.828Z,31.70
2018-07-25T12:05:35.041Z,31.70
2018-07-25T12:08:39.277Z,31.80
2018-07-25T12:11:46.500Z,31.90
2018-07-25T12:14:50.742Z,32.00
2018-07-25T12:17:54.940Z,32.10
2018-07-25T12:20:59.188Z,32.20
2018-07-25T12:24:03.398Z,32.20
2018-07-25T12:27:07.627Z,32.30
2018-07-25T12:30:11.860Z,32.50
2018-07-25T12:36:20.373Z,32.50
2018-07-25T12:39:24.641Z,32.40
2018-07-25T12:42:28.855Z,32.50
2018-07-25T12:45:33.092Z,32.60
2018-07-25T12:48:37.325Z,32.60
2018-07-25T12:51:41.568Z,32.70
2018-07-25T12:54:45.809Z,32.80
2018-07-25T13:00:54.042Z,32.90
2018-07-25T13:03:58.298Z,33.00
2018-07-25T13:07:02.535Z,32.90
2018-07-25T13:10:06.820Z,32.90
2018-07-25T13:13:11.065Z,32.90
2018-07-25T13:16:15.322Z,32.90
2018-07-25T13:19:19.571Z,32.90
2018-07-25T13:22:23.826Z,33.00
2018-07-25T13:25:28.081Z,33.10
2018-07-25T13:28:32.351Z,33.10
2018-07-25T13:31:36.559Z,33.30
2018-07-25T13:34:40.804Z,33.30
2018-07-25T13:37:45.025Z,33.20
2018-07-25T13:40:49.250Z,33.00
2018-07-25T13:43:53.465Z,32.80
2018-07-25T13:46:57.691Z,32.70
2018-07-25T13:50:01.932Z,32.70
2018-07-25T13:53:06.313Z,32.70
2018-07-25T13:56:10.561Z,32.80
2018-07-25T14:02:18.792Z,33.00
2018-07-25T14:05:23.026Z,33.10
2018-07-25T14:08:27.234Z,33.30
2018-07-25T14:11:31.540Z,33.40
2018-07-25T14:14:35.692Z,33.50
2018-07-25T14:17:39.926Z,33.40
2018-07-25T14:20:44.558Z,33.30
2018-07-25T14:23:48.886Z,33.20
2018-07-25T14:26:53.091Z,33.30
2018-07-25T14:29:57.342Z,33.30
2018-07-25T14:33:01.560Z,33.40
2018-07-25T14:36:06.166Z,33.40
2018-07-25T14:39:11.398Z,33.60
2018-07-25T14:42:15.645Z,33.60
2018-07-25T14:45:19.845Z,33.60
2018-07-25T14:48:24.049Z,33.60
2018-07-25T14:51:28.320Z,33.50
2018-07-25T14:54:32.522Z,33.60
2018-07-25T14:57:36.749Z,33.60
2018-07-25T15:00:40.985Z,33.50
2018-07-25T15:03:45.241Z,33.60
2018-07-25T15:06:49.488Z,33.50
2018-07-25T15:09:53.701Z,33.60
2018-07-25T15:12:59.549Z,33.50
2018-07-25T15:16:03.761Z,33.10
2018-07-25T15:19:08.034Z,32.10
2018-07-25T15:22:12.264Z,31.20
2018-07-25T15:25:16.518Z,30.10
2018-07-25T15:28:20.768Z,29.40
2018-07-25T15:31:25.037Z,29.40
2018-07-25T15:34:29.293Z,29.80
2018-07-25T15:37:33.545Z,30.00
2018-07-25T15:40:37.805Z,30.00
2018-07-25T15:43:42.020Z,30.20
2018-07-25T15:46:46.274Z,30.30
2018-07-25T15:49:50.444Z,30.70
2018-07-25T15:52:54.734Z,31.20
2018-07-25T15:55:58.917Z,31.50
2018-07-25T15:59:04.149Z,31.90
2018-07-25T16:02:09.176Z,31.70
2018-07-25T16:05:13.401Z,31.80
2018-07-25T16:08:17.657Z,31.70
2018-07-25T16:11:21.905Z,31.50
2018-07-25T16:14:26.177Z,31.30
2018-07-25T16:17:30.404Z,31.00
2018-07-25T16:20:34.645Z,30.70
2018-07-25T16:23:39.012Z,30.60
2018-07-25T16:26:43.264Z,30.30
2018-07-25T16:29:47.492Z,30.20
2018-07-25T16:32:51.732Z,29.80
2018-07-25T16:35:56.082Z,29.60
2018-07-25T16:39:00.300Z,29.40
2018-07-25T16:42:04.534Z,29.20
2018-07-25T16:45:08.774Z,29.20
2018-07-25T16:48:13.029Z,29.10
2018-07-25T16:51:17.252Z,29.10
2018-07-25T16:54:21.529Z,29.10
2018-07-25T16:57:25.773Z,28.90
2018-07-25T17:00:30.022Z,29.00
2018-07-25T17:03:34.288Z,28.80
2018-07-25T17:06:38.556Z,28.70
2018-07-25T17:09:42.834Z,28.70
2018-07-25T17:12:47.074Z,28.70
2018-07-25T17:15:51.328Z,28.80
2018-07-25T17:18:55.613Z,28.70
2018-07-25T17:21:59.882Z,28.60
2018-07-25T17:25:04.187Z,28.60
2018-07-25T17:28:08.449Z,28.60
2018-07-25T17:31:12.717Z,28.50
2018-07-25T17:34:16.972Z,28.50
2018-07-25T17:37:21.238Z,28.50
2018-07-25T17:40:25.545Z,28.50
2018-07-25T17:43:29.837Z,28.50
2018-07-25T17:46:34.076Z,28.50
2018-07-25T17:49:38.341Z,28.50
2018-07-25T17:52:42.579Z,28.40
2018-07-25T17:55:46.841Z,28.40
2018-07-25T17:58:51.053Z,28.40
2018-07-25T18:01:55.347Z,28.40
2018-07-25T18:08:03.607Z,28.30
2018-07-25T18:11:07.834Z,28.30
2018-07-25T18:14:15.260Z,28.30
2018-07-25T18:17:19.498Z,28.30
2018-07-25T18:20:23.766Z,28.30
2018-07-25T18:23:28.009Z,28.20
2018-07-25T18:26:32.236Z,28.20
2018-07-25T18:29:36.458Z,28.20
2018-07-25T18:32:40.700Z,28.20
2018-07-25T18:35:44.951Z,28.10
2018-07-25T18:38:49.141Z,28.10
2018-07-25T18:41:53.340Z,28.10
2018-07-25T18:44:57.553Z,27.90
2018-07-25T18:48:01.766Z,27.90
2018-07-25T18:51:06.189Z,27.80
2018-07-25T18:54:10.417Z,27.80
2018-07-25T18:57:14.621Z,27.70
2018-07-25T19:00:18.845Z,27.70
2018-07-25T19:03:23.063Z,27.60
2018-07-25T19:06:27.300Z,27.50
2018-07-25T19:09:31.510Z,27.50
2018-07-25T19:12:35.728Z,27.40
2018-07-25T19:15:39.959Z,27.30
2018-07-25T19:18:44.155Z,27.20
2018-07-25T19:21:48.377Z,27.10
2018-07-25T19:24:52.608Z,27.10
2018-07-25T19:27:56.801Z,27.00
2018-07-25T19:31:01.021Z,26.90
2018-07-25T19:34:05.204Z,26.80
2018-07-25T19:37:09.449Z,26.60
2018-07-25T19:40:13.673Z,26.50
2018-07-25T19:43:17.927Z,26.40
2018-07-25T19:46:22.134Z,26.40
2018-07-25T19:49:26.366Z,26.30
2018-07-25T19:52:30.556Z,26.10
2018-07-25T19:55:34.805Z,26.00
2018-07-25T19:58:39.021Z,25.80
2018-07-25T20:01:43.209Z,25.70
2018-07-25T20:04:47.465Z,25.60
2018-07-25T20:07:51.669Z,25.50
2018-07-25T20:10:55.865Z,25.30
2018-07-25T20:14:05.445Z,25.20
2018-07-25T20:17:09.647Z,25.10
2018-07-25T20:20:13.889Z,25.00
2018-07-25T20:23:18.101Z,24.90
2018-07-25T20:26:22.323Z,24.90
2018-07-25T20:29:26.533Z,24.70
2018-07-25T20:32:30.736Z,24.70
2018-07-25T20:35:34.940Z,24.60
2018-07-25T20:38:39.150Z,24.50
2018-07-25T20:41:43.357Z,24.40
2018-07-25T20:44:47.573Z,24.30
2018-07-25T20:47:51.809Z,24.30
2018-07-25T20:50:56.044Z,24.20
2018-07-25T20:54:00.273Z,24.10
2018-07-25T20:57:04.537Z,24.00
2018-07-25T21:00:08.820Z,23.90
2018-07-25T21:03:13.002Z,23.80
2018-07-25T21:06:17.226Z,23.70
2018-07-25T21:09:21.451Z,23.70
2018-07-25T21:12:25.788Z,23.60
2018-07-25T21:15:30.038Z,23.60
2018-07-25T21:18:34.229Z,23.50
2018-07-25T21:21:38.525Z,23.40
2018-07-25T21:24:42.667Z,23.30
2018-07-25T21:27:46.922Z,23.30
2018-07-25T21:30:51.117Z,23.30
2018-07-25T21:33:55.320Z,23.20
2018-07-25T21:36:59.530Z,23.20
2018-07-25T21:40:03.793Z,23.10
2018-07-25T21:43:07.993Z,23.00
2018-07-25T21:46:12.192Z,23.00
2018-07-25T21:49:16.386Z,23.00
2018-07-25T21:52:20.636Z,22.90
2018-07-25T21:55:24.848Z,22.90
2018-07-25T21:58:29.066Z,22.80
2018-07-25T22:01:33.260Z,22.80
2018-07-25T22:04:37.526Z,22.70
2018-07-25T22:07:41.769Z,22.70
2018-07-25T22:10:45.990Z,22.60
2018-07-25T22:13:55.713Z,22.50
2018-07-25T22:16:59.899Z,22.50
2018-07-25T22:20:04.169Z,22.50
2018-07-25T22:23:08.412Z,22.50
2018-07-25T22:26:12.824Z,22.50
2018-07-25T22:29:17.018Z,22.40
2018-07-25T22:32:21.233Z,22.30
2018-07-25T22:35:25.472Z,22.30
2018-07-25T22:38:29.686Z,22.30
2018-07-25T22:41:33.904Z,22.30
2018-07-25T22:44:38.132Z,22.30
2018-07-25T22:47:42.346Z,22.20
2018-07-25T22:50:46.602Z,22.20
2018-07-25T22:53:50.828Z,22.10
2018-07-25T22:56:55.053Z,22.10
2018-07-25T22:59:59.266Z,22.10
2018-07-25T23:03:03.485Z,22.00
2018-07-25T23:06:07.760Z,21.90
2018-07-25T23:09:12.644Z,21.90
2018-07-25T23:12:16.840Z,21.80
2018-07-25T23:15:21.168Z,21.70
2018-07-25T23:18:25.386Z,21.70
2018-07-25T23:21:29.608Z,21.70
2018-07-25T23:24:33.846Z,21.60
2018-07-25T23:27:38.049Z,21.60
2018-07-25T23:30:42.329Z,21.60
2018-07-25T23:33:47.376Z,21.50
2018-07-25T23:36:51.597Z,21.60
2018-07-25T23:39:55.837Z,21.50
2018-07-25T23:43:00.040Z,21.50
2018-07-25T23:46:04.265Z,21.50
2018-07-25T23:49:08.475Z,21.50
2018-07-25T23:52:12.710Z,21.40
2018-07-25T23:55:16.920Z,21.40
2018-07-25T23:58:21.137Z,21.30
